Pagina principale
METAR-TAF:

METAR-TAF

Aeroporti :

Aeroporto di Catania-Fontanarossa

Catania, Italia

latitudine: 37-28N, longitudine: 015-03E, altezza: 11 m

Osservazione

Il bollettino è stato emesso 11 minuti fa, alle 00:50 UTC
Vento 3 kt da sud/sud-ovest
Temperature 18°C
Umidità 77%
Pressione 1014 hPa
Visibilità 10 km o più
nessuna nube inferiore a 1500 m e nessun cumulonembo

METAR: LICC 150050Z 20003KT CAVOK 18/14 Q1014

Ora: 03:01 (01:01 UTC)

Previsione

Il bollettino è stato emesso 2 ore e 1 minuti fa, alle 23:00 UTC
Previsione valida dal 15 alle 00 UTC al 15 alle 24 UTC
Vento 5 kt da direzioni variabili
Visibilità 10 km o più
Poco nuvoloso ad un'altezza di 3000 ft
Evoluzione graduale
dal 15 alle 08 UTC al 15 alle 10 UTC
Vento 12 kt da est/sud-est
Evoluzione graduale
dal 15 alle 16 UTC al 15 alle 18 UTC
Vento 5 kt da direzioni variabili

TAF: LICC 142300Z 1500/1524 VRB05KT 9999 FEW030 BECMG 1508/1510 11012KT BECMG 1516/1518 VRB05KT

Osservazioni e previsioni meteorologiche di più di 4000 aeroporti (messaggi METAR e TAF).

Le stazioni disponibili sono rappresentate dai dischi gialli e rossi sulla carta.

Puntare il mouse per vedere il nome della stazione.

Clicca sopra per visualizzare le osservazioni e previsioni meteorologiche.

Per cambiare la mappa : fare clic sui pulsanti verdi con una croce nera per ingrandire, il pulsante verde con un trattino per diminuire, o sulla freccia verde per le mappe adiacenti.


METAR-TAF: